Time;durP1;ratioP1;P1;durP2;ratioP2;P2;SDS_P1;SDS_P2;PMS_P1;PMS_P2;Temp;Humidity;BMP_temperature;BMP_pressure;BME280_temperature;BME280_humidity;BME280_pressure;Samples;Min_cycle;Max_cycle;Signal;HPM_P1;HPM_P2
2023/04/12 00:02:26;;;;;;;1.40;0.95;;;;;;;5.79;100.00;100645.81;6278017;28;20330;-77
2023/04/12 00:05:27;;;;;;;3.80;1.75;;;;;;;5.77;100.00;100638.03;6278077;28;20449;-77
2023/04/12 00:08:33;;;;;;;3.33;1.05;;;;;;;5.76;100.00;100628.50;6277432;28;20080;-77
2023/04/12 00:11:35;;;;;;;4.28;1.20;;;;;;;5.77;100.00;100622.41;6277052;28;20051;-77
2023/04/12 00:14:36;;;;;;;1.10;0.80;;;;;;;5.76;100.00;100605.03;6276904;28;20338;-77
2023/04/12 00:17:38;;;;;;;6.47;1.05;;;;;;;5.85;100.00;100607.31;6277786;28;20049;-77
2023/04/12 00:20:39;;;;;;;8.82;1.00;;;;;;;5.89;100.00;100595.00;6277656;28;20083;-77
2023/04/12 00:23:43;;;;;;;0.88;0.60;;;;;;;5.95;100.00;100596.56;6277296;28;20053;-77
2023/04/12 00:26:45;;;;;;;4.72;1.40;;;;;;;6.00;100.00;100579.88;6277541;28;20041;-77
2023/04/12 00:29:46;;;;;;;4.97;1.35;;;;;;;5.99;100.00;100569.47;6277381;28;20045;-77
2023/04/12 00:32:48;;;;;;;2.97;1.00;;;;;;;5.99;100.00;100572.06;6277355;28;20049;-77
2023/04/12 00:35:49;;;;;;;2.28;0.93;;;;;;;5.95;100.00;100567.88;6277091;28;20045;-77
2023/04/12 00:38:52;;;;;;;1.58;0.93;;;;;;;5.98;100.00;100552.97;6277282;28;20445;-77
2023/04/12 00:41:55;;;;;;;2.15;0.90;;;;;;;6.04;100.00;100541.44;6277255;28;20470;-77
2023/04/12 00:44:57;;;;;;;1.92;0.85;;;;;;;6.07;100.00;100543.97;6277005;28;20045;-77
2023/04/12 00:47:59;;;;;;;9.10;2.10;;;;;;;6.10;100.00;100541.25;6276864;28;20052;-77
2023/04/12 00:51:02;;;;;;;2.40;0.75;;;;;;;6.16;100.00;100543.59;6277306;28;20049;-77
2023/04/12 00:54:06;;;;;;;1.33;0.68;;;;;;;6.17;100.00;100536.63;6268324;28;20657;-77
2023/04/12 00:57:07;;;;;;;1.88;0.93;;;;;;;6.16;100.00;100532.31;6276576;28;20049;-77
2023/04/12 01:00:12;;;;;;;5.90;1.42;;;;;;;6.16;100.00;100519.28;6276829;28;20045;-77
2023/04/12 01:03:15;;;;;;;5.25;0.90;;;;;;;6.22;100.00;100524.25;6276014;28;20055;-77
2023/04/12 01:06:28;;;;;;;3.17;0.88;;;;;;;6.23;100.00;100520.75;6276626;28;20045;-77
2023/04/12 01:09:42;;;;;;;3.30;0.93;;;;;;;6.25;100.00;100514.53;6276411;28;20397;-77
2023/04/12 01:13:00;;;;;;;3.60;0.80;;;;;;;6.25;100.00;100509.31;6276547;28;20068;-77
2023/04/12 01:16:08;;;;;;;9.85;1.30;;;;;;;6.21;100.00;100504.28;6276416;28;20045;-77
2023/04/12 01:19:29;;;;;;;1.65;0.82;;;;;;;6.20;100.00;100493.00;6268868;28;20053;-77
2023/04/12 01:22:58;;;;;;;2.67;0.90;;;;;;;6.25;100.00;100500.66;6276224;28;20377;-77
2023/04/12 01:26:11;;;;;;;2.95;0.98;;;;;;;6.28;100.00;100487.50;6276095;28;20049;-77
2023/04/12 01:29:16;;;;;;;2.17;0.90;;;;;;;6.25;100.00;100488.44;6275925;28;20056;-77
2023/04/12 01:32:20;;;;;;;1.33;0.60;;;;;;;6.19;100.00;100490.47;6275637;28;20128;-77
2023/04/12 01:35:24;;;;;;;2.60;0.85;;;;;;;6.16;100.00;100475.78;6275981;28;20052;-77
2023/04/12 01:38:26;;;;;;;2.85;1.15;;;;;;;6.12;100.00;100475.94;6275601;28;20049;-77
2023/04/12 01:41:28;;;;;;;4.43;1.00;;;;;;;6.12;100.00;100465.50;6275784;28;20041;-77
2023/04/12 01:44:30;;;;;;;4.63;1.35;;;;;;;6.12;100.00;100455.94;6275820;28;20048;-77
2023/04/12 01:47:33;;;;;;;2.13;1.15;;;;;;;6.12;100.00;100453.31;6275646;28;20052;-77
2023/04/12 01:50:43;;;;;;;3.33;1.48;;;;;;;6.12;100.00;100444.66;6275515;28;20048;-77
2023/04/12 01:53:50;;;;;;;7.70;0.90;;;;;;;6.16;100.00;100433.19;6275727;28;20045;-77
2023/04/12 01:56:57;;;;;;;5.43;1.48;;;;;;;6.14;100.00;100430.66;6275182;28;20053;-77
2023/04/12 02:00:02;;;;;;;7.47;1.30;;;;;;;6.14;100.00;100425.44;6275628;28;20051;-77
2023/04/12 02:03:05;;;;;;;4.10;0.80;;;;;;;6.17;100.00;100414.84;6275418;28;20140;-77
2023/04/12 02:06:08;;;;;;;4.47;1.35;;;;;;;6.16;100.00;100407.94;6275414;28;20045;-77
2023/04/12 02:09:09;;;;;;;8.73;1.20;;;;;;;6.16;100.00;100399.25;6275142;28;20060;-77
2023/04/12 02:12:11;;;;;;;2.67;1.15;;;;;;;6.16;100.00;100387.06;6275421;28;20045;-77
2023/04/12 02:15:15;;;;;;;7.70;1.02;;;;;;;6.20;100.00;100383.41;6275264;28;20049;-77
2023/04/12 02:18:16;;;;;;;1.85;0.90;;;;;;;6.14;100.00;100367.19;6274830;28;20080;-77
2023/04/12 02:21:18;;;;;;;2.35;1.02;;;;;;;6.09;100.00;100357.78;6275223;28;20159;-77
2023/04/12 02:24:20;;;;;;;2.95;1.08;;;;;;;6.07;100.00;100358.75;6274715;28;20052;-77
2023/04/12 02:27:21;;;;;;;7.88;1.40;;;;;;;6.10;100.00;100349.03;6274537;28;20045;-77
2023/04/12 02:30:24;;;;;;;1.67;1.15;;;;;;;6.04;100.00;100346.69;6271014;28;20053;-77
2023/04/12 02:33:27;;;;;;;3.22;1.30;;;;;;;6.03;100.00;100351.94;6272445;28;20044;-77
2023/04/12 02:36:28;;;;;;;4.43;1.30;;;;;;;6.04;100.00;100349.31;6264326;28;20140;-77
2023/04/12 02:39:30;;;;;;;3.70;1.10;;;;;;;6.05;100.00;100348.38;6278704;28;20055;-77
2023/04/12 02:42:32;;;;;;;3.13;1.30;;;;;;;6.08;100.00;100335.19;6283095;28;20518;-77
2023/04/12 02:45:35;;;;;;;1.08;0.90;;;;;;;6.12;100.00;100335.06;6282402;28;20045;-77
2023/04/12 02:48:36;;;;;;;5.55;2.00;;;;;;;6.11;100.00;100326.41;6282905;28;20045;-77
2023/04/12 02:51:38;;;;;;;6.63;1.40;;;;;;;6.08;100.00;100324.75;6282730;28;20052;-77
2023/04/12 02:54:39;;;;;;;2.15;0.93;;;;;;;6.04;100.00;100315.41;6282954;28;20045;-77
2023/04/12 02:57:41;;;;;;;1.83;1.17;;;;;;;5.99;100.00;100313.88;6282330;28;20377;-77
2023/04/12 03:00:45;;;;;;;1.92;1.05;;;;;;;6.05;100.00;100303.19;6282788;28;20364;-77
2023/04/12 03:03:46;;;;;;;2.95;1.42;;;;;;;6.13;100.00;100301.09;6282567;28;20167;-77
2023/04/12 03:06:52;;;;;;;1.48;0.80;;;;;;;6.16;100.00;100292.31;6282893;28;20056;-77
2023/04/12 03:09:54;;;;;;;3.97;1.40;;;;;;;6.15;100.00;100288.00;6282637;28;20056;-77
2023/04/12 03:12:55;;;;;;;5.13;1.48;;;;;;;6.04;100.00;100265.84;6282884;28;20049;-77
2023/04/12 03:15:59;;;;;;;5.32;1.23;;;;;;;6.02;100.00;100259.81;6282679;28;20049;-77
2023/04/12 03:19:00;;;;;;;3.03;1.10;;;;;;;5.96;100.00;100256.63;6282656;28;20588;-77
2023/04/12 03:22:02;;;;;;;5.10;1.40;;;;;;;5.95;100.00;100252.31;6282420;28;20045;-77
2023/04/12 03:25:04;;;;;;;3.80;1.17;;;;;;;5.95;100.00;100245.34;6281924;28;20445;-77
2023/04/12 03:28:07;;;;;;;2.13;1.00;;;;;;;5.98;100.00;100234.78;6282521;28;20128;-77
2023/04/12 03:31:11;;;;;;;1.33;1.13;;;;;;;6.12;100.00;100234.19;6282471;28;20057;-77
2023/04/12 03:34:12;;;;;;;2.85;1.02;;;;;;;6.05;100.00;100215.34;6281754;28;20326;-77
2023/04/12 03:37:14;;;;;;;2.80;1.05;;;;;;;5.98;100.00;100210.47;6280191;28;20049;-77
2023/04/12 03:40:15;;;;;;;3.97;1.20;;;;;;;6.04;100.00;100203.25;6277434;28;20045;-77
2023/04/12 03:43:16;;;;;;;9.07;1.20;;;;;;;6.02;100.00;100191.16;6275436;28;20053;-77
2023/04/12 03:46:20;;;;;;;3.90;1.27;;;;;;;6.09;100.00;100188.22;6272147;28;20056;-77
2023/04/12 03:49:21;;;;;;;1.35;0.90;;;;;;;6.15;100.00;100181.88;6273162;28;20041;-77
2023/04/12 03:52:22;;;;;;;4.97;1.42;;;;;;;6.12;100.00;100171.56;6274001;28;20116;-77
2023/04/12 03:55:24;;;;;;;1.38;0.65;;;;;;;6.11;100.00;100172.50;6270589;28;20053;-77
2023/04/12 03:58:25;;;;;;;1.08;0.90;;;;;;;6.15;100.00;100183.66;6271395;28;20194;-77
2023/04/12 04:01:28;;;;;;;2.85;1.02;;;;;;;6.23;100.00;100176.34;6275352;28;20048;-77
2023/04/12 04:04:30;;;;;;;1.33;0.88;;;;;;;6.21;100.00;100175.53;6273772;28;20048;-77
2023/04/12 04:07:31;;;;;;;1.10;0.90;;;;;;;6.20;100.00;100169.47;6272465;28;20045;-74
2023/04/12 04:10:33;;;;;;;2.20;0.85;;;;;;;6.22;100.00;100164.19;6273376;28;20045;-77
2023/04/12 04:13:34;;;;;;;3.00;0.70;;;;;;;6.09;100.00;100159.53;6273158;28;20045;-77
2023/04/12 04:16:37;;;;;;;2.72;1.05;;;;;;;6.06;100.00;100154.44;6270779;28;20041;-77
2023/04/12 04:19:39;;;;;;;3.28;1.13;;;;;;;6.12;100.00;100155.09;6272222;28;20052;-77
2023/04/12 04:22:41;;;;;;;6.60;1.55;;;;;;;6.05;100.00;100151.91;6271443;28;20579;-78
2023/04/12 04:25:43;;;;;;;4.65;1.08;;;;;;;6.02;100.00;100145.06;6269689;28;20064;-77
2023/04/12 04:28:49;;;;;;;1.00;0.85;;;;;;;5.98;100.00;100147.88;6273127;28;20052;-77
2023/04/12 04:31:52;;;;;;;3.75;1.23;;;;;;;5.95;100.00;100145.38;6273605;28;20414;-77
2023/04/12 04:34:55;;;;;;;1.80;0.93;;;;;;;5.95;100.00;100141.03;6271812;28;20045;-77
2023/04/12 04:37:57;;;;;;;1.67;1.20;;;;;;;5.92;100.00;100133.34;6276093;28;20056;-77
2023/04/12 04:41:01;;;;;;;2.83;1.17;;;;;;;5.97;100.00;100127.94;6277416;28;20136;-79
2023/04/12 04:44:03;;;;;;;2.03;0.90;;;;;;;5.90;100.00;100123.84;6276952;28;20470;-77
2023/04/12 04:47:07;;;;;;;2.05;1.13;;;;;;;5.95;100.00;100116.69;6268439;28;20707;-77
2023/04/12 04:50:09;;;;;;;1.58;1.05;;;;;;;5.98;100.00;100113.97;6276822;28;20098;-77
2023/04/12 04:53:10;;;;;;;5.40;1.10;;;;;;;6.02;100.00;100110.31;6276505;28;20048;-77
2023/04/12 04:56:12;;;;;;;1.30;0.90;;;;;;;6.05;100.00;100112.78;6276003;28;20048;-77
2023/04/12 04:59:13;;;;;;;1.85;1.10;;;;;;;6.13;100.00;100108.06;6276914;28;20049;-77
2023/04/12 05:02:16;;;;;;;3.03;0.82;;;;;;;6.10;100.00;100100.38;6276722;28;20071;-77
2023/04/12 05:05:21;;;;;;;3.85;1.55;;;;;;;6.14;100.00;100106.31;6276895;28;20045;-77
2023/04/12 05:08:23;;;;;;;5.68;1.00;;;;;;;6.20;100.00;100096.44;6276429;28;20456;-77
2023/04/12 05:11:25;;;;;;;2.58;1.52;;;;;;;6.25;99.27;100096.22;6276574;28;20133;-77
2023/04/12 05:14:26;;;;;;;1.52;1.00;;;;;;;6.29;99.13;100092.56;6276438;28;20052;-77
2023/04/12 05:17:29;;;;;;;3.55;0.80;;;;;;;6.32;98.87;100088.03;6276146;28;20049;-77
2023/04/12 05:20:30;;;;;;;4.80;1.02;;;;;;;6.36;97.49;100073.09;6276210;28;20071;-77
2023/04/12 05:23:35;;;;;;;1.35;0.57;;;;;;;6.46;97.12;100069.13;6276518;28;20049;-77
2023/04/12 05:26:36;;;;;;;7.22;1.10;;;;;;;6.47;96.90;100059.53;6275890;28;20120;-77
2023/04/12 05:29:37;;;;;;;1.33;1.00;;;;;;;6.47;97.05;100056.94;6275505;28;20060;-77
2023/04/12 05:32:40;;;;;;;1.65;1.02;;;;;;;6.49;97.00;100050.69;6276168;28;20045;-77
2023/04/12 05:35:41;;;;;;;6.18;0.80;;;;;;;6.60;97.78;100053.66;6275874;28;20179;-77
2023/04/12 05:38:43;;;;;;;5.68;1.10;;;;;;;6.50;96.57;100051.56;6275595;28;20052;-77
2023/04/12 05:41:44;;;;;;;8.77;0.77;;;;;;;6.59;97.76;100051.97;6275850;28;20049;-77
2023/04/12 05:44:47;;;;;;;1.65;0.70;;;;;;;6.60;97.75;100043.22;6275370;28;20090;-77
2023/04/12 05:47:50;;;;;;;1.85;0.90;;;;;;;6.64;98.00;100046.53;6274931;28;20064;-77
2023/04/12 05:50:52;;;;;;;0.73;0.73;;;;;;;6.70;98.22;100042.78;6273545;28;20049;-77
2023/04/12 05:53:53;;;;;;;2.05;0.80;;;;;;;6.68;97.93;100042.00;6275288;28;20056;-77
2023/04/12 05:56:55;;;;;;;3.08;0.95;;;;;;;6.68;98.94;100035.03;6274365;28;20048;-77
2023/04/12 05:59:56;;;;;;;2.33;1.05;;;;;;;6.71;100.00;100029.63;6275114;28;20053;-77
2023/04/12 06:02:59;;;;;;;2.83;1.10;;;;;;;6.73;97.99;100025.19;6275243;28;20052;-77
2023/04/12 06:06:01;;;;;;;2.72;0.70;;;;;;;6.80;99.10;100023.13;6274485;28;20045;-77
2023/04/12 06:09:03;;;;;;;3.60;0.70;;;;;;;6.76;98.64;100014.56;6273945;28;20509;-77
2023/04/12 06:12:05;;;;;;;2.70;0.70;;;;;;;6.81;99.04;100014.34;6274806;28;20463;-77
2023/04/12 06:15:07;;;;;;;1.35;0.80;;;;;;;6.88;99.90;100012.28;6275089;28;20041;-77
2023/04/12 06:18:11;;;;;;;3.58;1.20;;;;;;;6.92;100.00;100008.59;6274902;28;20049;-77
2023/04/12 06:21:13;;;;;;;2.67;0.63;;;;;;;6.91;99.18;100005.16;6275121;28;20057;-77
2023/04/12 06:24:14;;;;;;;2.95;1.50;;;;;;;6.99;100.00;99989.06;6275116;28;20049;-77
2023/04/12 06:27:16;;;;;;;1.52;0.80;;;;;;;7.04;100.00;99987.94;6274204;28;20049;-77
2023/04/12 06:30:18;;;;;;;2.00;1.00;;;;;;;7.08;100.00;99986.00;6275065;28;20049;-78
2023/04/12 06:33:21;;;;;;;3.38;1.60;;;;;;;7.12;100.00;99979.69;6275004;28;20453;-77
2023/04/12 06:36:23;;;;;;;1.33;0.90;;;;;;;7.16;100.00;99967.31;6274454;28;20048;-77
2023/04/12 06:39:24;;;;;;;5.90;1.23;;;;;;;7.19;100.00;99947.13;6274977;28;20056;-77
2023/04/12 06:42:26;;;;;;;6.03;1.00;;;;;;;7.24;100.00;99955.56;6274788;28;20151;-77
2023/04/12 06:45:27;;;;;;;2.20;0.70;;;;;;;7.33;100.00;99944.63;6275021;28;20041;-77
2023/04/12 06:48:30;;;;;;;2.28;0.93;;;;;;;7.45;100.00;99932.69;6274591;28;20132;-77
2023/04/12 06:51:33;;;;;;;2.05;1.08;;;;;;;7.55;100.00;99927.78;6274721;28;20056;-77
2023/04/12 06:54:36;;;;;;;6.35;1.50;;;;;;;7.72;100.00;99921.63;6274295;28;20060;-77
2023/04/12 06:57:37;;;;;;;3.47;0.88;;;;;;;7.87;100.00;99920.81;6274390;28;20049;-77
2023/04/12 07:00:39;;;;;;;5.68;1.10;;;;;;;8.00;100.00;99911.34;6274757;28;20045;-77
2023/04/12 07:03:41;;;;;;;3.20;0.85;;;;;;;8.18;100.00;99906.00;6274817;28;20041;-77
2023/04/12 07:06:43;;;;;;;1.27;0.80;;;;;;;8.30;100.00;99908.75;6274537;28;20474;-77
2023/04/12 07:09:46;;;;;;;3.47;0.80;;;;;;;8.40;100.00;99893.38;6274065;28;20052;-77
2023/04/12 07:12:48;;;;;;;2.28;0.98;;;;;;;8.47;100.00;99886.03;6274617;28;20053;-77
2023/04/12 07:15:50;;;;;;;6.15;1.05;;;;;;;8.53;100.00;99873.41;6274353;28;20049;-78
2023/04/12 07:18:53;;;;;;;3.67;0.60;;;;;;;8.66;100.00;99865.66;6274758;28;20488;-78
2023/04/12 07:21:54;;;;;;;4.28;0.85;;;;;;;8.80;100.00;99884.00;6279112;28;20057;-77
2023/04/12 07:24:56;;;;;;;4.03;0.93;;;;;;;8.87;100.00;99868.78;6278902;28;20053;-77
2023/04/12 07:27:57;;;;;;;3.97;0.60;;;;;;;8.95;100.00;99869.19;6278703;28;20045;-77
2023/04/12 07:30:58;;;;;;;3.33;0.95;;;;;;;9.01;100.00;99867.94;6279048;28;20056;-77
2023/04/12 07:34:01;;;;;;;1.13;0.68;;;;;;;9.05;100.00;99859.81;6278781;28;20052;-77
2023/04/12 07:37:03;;;;;;;3.75;0.93;;;;;;;9.12;100.00;99841.91;6278529;28;20179;-77
2023/04/12 07:40:06;;;;;;;2.55;0.60;;;;;;;9.13;100.00;99835.75;6270322;28;20076;-77
2023/04/12 07:43:07;;;;;;;0.93;0.73;;;;;;;9.21;99.89;99832.63;6278483;28;20044;-78
2023/04/12 07:46:09;;;;;;;2.15;0.60;;;;;;;9.26;100.00;99828.78;6278489;28;20052;-77
2023/04/12 07:49:11;;;;;;;2.55;0.73;;;;;;;9.24;98.92;99821.97;6278364;28;20056;-77
2023/04/12 07:52:13;;;;;;;4.63;0.80;;;;;;;9.22;99.86;99814.22;6278439;28;20452;-77
2023/04/12 07:55:14;;;;;;;1.33;0.73;;;;;;;9.26;100.00;99810.44;6277721;28;20350;-77
2023/04/12 07:58:16;;;;;;;4.57;0.77;;;;;;;9.26;100.00;99805.19;6277972;28;20361;-78
2023/04/12 08:01:18;;;;;;;1.55;0.73;;;;;;;9.21;100.00;99806.44;6268010;28;20128;-77
2023/04/12 08:04:20;;;;;;;2.15;0.98;;;;;;;9.12;100.00;99797.34;6269983;28;20353;-78
2023/04/12 08:07:22;;;;;;;4.45;1.10;;;;;;;9.13;100.00;99794.66;6257087;28;20056;-78
2023/04/12 08:10:24;;;;;;;4.32;0.70;;;;;;;9.15;100.00;99795.38;6267719;28;20059;-78
2023/04/12 08:13:25;;;;;;;0.65;0.50;;;;;;;9.15;100.00;99794.56;6277794;28;20041;-78
2023/04/12 08:16:27;;;;;;;2.45;0.85;;;;;;;9.25;100.00;99789.56;6277195;28;20045;-78
2023/04/12 08:19:30;;;;;;;2.92;1.08;;;;;;;9.05;100.00;99783.81;6277893;28;20103;-78
2023/04/12 08:22:31;;;;;;;1.25;0.73;;;;;;;8.94;100.00;99782.78;6277434;28;20045;-78
2023/04/12 08:25:33;;;;;;;3.08;1.00;;;;;;;8.86;100.00;99784.09;6277429;28;20048;-78
2023/04/12 08:28:34;;;;;;;1.65;0.80;;;;;;;8.88;100.00;99784.00;6276823;28;20135;-78
2023/04/12 08:31:36;;;;;;;1.83;0.95;;;;;;;8.88;100.00;99786.63;6270888;28;20221;-77
2023/04/12 08:34:38;;;;;;;1.58;0.70;;;;;;;8.86;100.00;99781.50;6272244;28;20045;-78
2023/04/12 08:37:40;;;;;;;1.73;0.82;;;;;;;8.81;100.00;99772.22;6276986;28;20048;-78
2023/04/12 08:40:42;;;;;;;1.88;0.85;;;;;;;8.82;100.00;99771.28;6275154;28;20052;-78
2023/04/12 08:43:46;;;;;;;1.75;1.05;;;;;;;8.79;100.00;99772.31;6277312;28;20507;-78
2023/04/12 08:46:48;;;;;;;1.63;0.80;;;;;;;8.79;100.00;99777.56;6276977;28;20134;-79
2023/04/12 08:49:50;;;;;;;2.97;1.05;;;;;;;8.75;100.00;99777.84;6275980;28;20052;-78
2023/04/12 08:52:52;;;;;;;3.05;1.10;;;;;;;8.77;100.00;99773.38;6275329;28;20056;-77
2023/04/12 08:55:54;;;;;;;1.75;1.02;;;;;;;8.75;100.00;99769.97;6276521;28;20061;-78
2023/04/12 08:58:56;;;;;;;2.20;0.90;;;;;;;8.76;100.00;99769.88;6276319;28;20472;-78
2023/04/12 09:01:59;;;;;;;1.33;1.10;;;;;;;8.71;100.00;99765.84;6276997;28;20053;-77
2023/04/12 09:05:01;;;;;;;1.27;0.90;;;;;;;8.71;100.00;99755.38;6276800;28;20068;-78
2023/04/12 09:08:04;;;;;;;1.85;0.90;;;;;;;8.63;100.00;99751.47;6276108;28;20045;-78
2023/04/12 09:11:21;;;;;;;2.22;0.82;;;;;;;8.70;100.00;99744.06;6268183;28;20052;-78
2023/04/12 09:14:25;;;;;;;2.50;1.17;;;;;;;8.62;100.00;99738.44;6276410;28;20051;-78
2023/04/12 09:17:28;;;;;;;2.85;1.20;;;;;;;8.66;100.00;99728.63;6276170;28;20124;-79
2023/04/12 09:20:31;;;;;;;2.05;1.02;;;;;;;8.64;100.00;99718.25;6275982;28;20047;-77
2023/04/12 09:23:34;;;;;;;2.00;1.30;;;;;;;8.67;100.00;99717.22;6276298;28;20064;-78
2023/04/12 09:26:36;;;;;;;1.33;0.70;;;;;;;8.59;100.00;99720.34;6275650;28;20126;-77
2023/04/12 09:29:38;;;;;;;2.35;1.00;;;;;;;8.52;100.00;99717.22;6275925;28;20048;-78
2023/04/12 09:32:39;;;;;;;1.52;1.02;;;;;;;8.54;100.00;99720.63;6276085;28;20047;-77
2023/04/12 09:35:42;;;;;;;3.22;1.02;;;;;;;8.46;100.00;99706.31;6275813;28;20040;-78
2023/04/12 09:39:00;;;;;;;1.27;0.88;;;;;;;8.38;100.00;99698.91;6274945;28;20045;-78
2023/04/12 09:42:06;;;;;;;1.95;0.98;;;;;;;8.38;100.00;99693.66;6271821;28;20445;-78
2023/04/12 09:45:20;;;;;;;4.20;0.55;;;;;;;8.42;100.00;99694.34;6275195;28;20361;-78
2023/04/12 09:48:25;;;;;;;1.52;0.70;;;;;;;8.40;100.00;99678.69;6275455;28;20088;-78
2023/04/12 09:51:30;;;;;;;1.70;0.85;;;;;;;8.44;100.00;99687.22;6275638;28;20052;-77
2023/04/12 09:54:34;;;;;;;3.72;0.73;;;;;;;8.50;100.00;99685.06;6275243;28;20051;-77
2023/04/12 09:57:37;;;;;;;3.08;0.63;;;;;;;8.53;100.00;99681.41;6269529;28;20747;-78
2023/04/12 10:00:39;;;;;;;1.13;0.60;;;;;;;8.50;100.00;99679.84;6275124;28;20356;-78
2023/04/12 10:03:41;;;;;;;1.63;0.52;;;;;;;8.58;100.00;99666.25;6275537;28;20041;-77
2023/04/12 10:06:44;;;;;;;1.42;0.68;;;;;;;8.61;100.00;99668.69;6275078;28;20048;-77
2023/04/12 10:09:47;;;;;;;1.40;0.57;;;;;;;8.69;100.00;99660.34;6274664;28;20467;-78
2023/04/12 10:12:49;;;;;;;1.88;0.95;;;;;;;8.75;100.00;99658.19;6275287;28;20134;-79
2023/04/12 10:15:52;;;;;;;2.38;1.02;;;;;;;8.76;100.00;99645.91;6275137;28;20405;-78
2023/04/12 10:18:54;;;;;;;5.45;1.17;;;;;;;8.76;100.00;99645.91;6274630;28;20049;-77
2023/04/12 10:21:58;;;;;;;2.63;0.98;;;;;;;8.76;100.00;99638.06;6275327;28;20078;-78
2023/04/12 10:24:59;;;;;;;0.90;0.68;;;;;;;8.72;100.00;99633.94;6274602;28;20353;-79
2023/04/12 10:28:14;;;;;;;2.28;0.90;;;;;;;8.75;100.00;99628.53;6274977;28;20041;-78
2023/04/12 10:31:28;;;;;;;3.00;1.02;;;;;;;8.72;100.00;99629.59;6268607;28;20469;-78
2023/04/12 10:34:31;;;;;;;1.40;0.90;;;;;;;8.76;100.00;99627.59;6269087;28;20447;-78
2023/04/12 10:38:01;;;;;;;1.15;0.85;;;;;;;8.76;100.00;99623.19;6274350;28;20437;-76
2023/04/12 10:41:23;;;;;;;1.88;0.90;;;;;;;8.83;100.00;99623.66;6270350;28;20056;-77
2023/04/12 10:44:25;;;;;;;1.58;1.02;;;;;;;8.81;100.00;99618.50;6264717;28;20344;-77
2023/04/12 10:47:57;;;;;;;1.75;1.20;;;;;;;8.83;100.00;99615.78;6268785;28;20037;-78
2023/04/12 10:51:22;;;;;;;2.88;1.42;;;;;;;8.79;100.00;99607.28;6269028;28;20045;-80
2023/04/12 10:54:35;;;;;;;2.70;1.23;;;;;;;8.76;100.00;99614.47;6274986;28;20124;-78
2023/04/12 10:57:48;;;;;;;2.67;1.20;;;;;;;8.79;100.00;99609.06;6272854;28;20041;-79
2023/04/12 11:01:10;;;;;;;1.88;0.98;;;;;;;8.77;100.00;99614.41;6278744;28;20349;-78
2023/04/12 11:04:14;;;;;;;1.73;1.00;;;;;;;8.78;100.00;99604.78;6267458;28;20072;-81
2023/04/12 11:07:16;;;;;;;2.17;1.35;;;;;;;8.84;100.00;99605.19;6279143;28;20057;-81
2023/04/12 11:10:20;;;;;;;0.95;0.80;;;;;;;8.81;100.00;99600.19;6279485;28;20049;-78
2023/04/12 11:13:21;;;;;;;4.82;1.13;;;;;;;8.86;100.00;99598.09;6279324;28;20368;-79
2023/04/12 11:16:23;;;;;;;1.95;1.13;;;;;;;8.87;100.00;99612.03;6279185;28;20049;-78
2023/04/12 11:19:25;;;;;;;2.97;1.10;;;;;;;8.88;100.00;99598.00;6278886;28;20049;-78
2023/04/12 11:22:29;;;;;;;1.77;1.42;;;;;;;8.86;100.00;99595.47;6274812;28;20326;-79
2023/04/12 11:25:32;;;;;;;2.70;1.23;;;;;;;8.84;100.00;99586.88;6278835;28;20350;-80
2023/04/12 11:28:33;;;;;;;2.08;1.15;;;;;;;8.84;100.00;99589.47;6278667;28;20045;-80
2023/04/12 11:31:38;;;;;;;9.73;1.23;;;;;;;8.85;100.00;99580.69;6279121;28;20071;-80
2023/04/12 11:34:40;;;;;;;1.33;1.10;;;;;;;8.86;100.00;99573.69;6278765;28;20044;-79
2023/04/12 11:37:43;;;;;;;1.00;0.80;;;;;;;8.93;100.00;99574.94;6278287;28;20087;-79
2023/04/12 11:40:48;;;;;;;1.23;1.10;;;;;;;8.94;100.00;99574.00;6278779;28;20045;-78
2023/04/12 11:43:49;;;;;;;1.58;1.10;;;;;;;8.95;100.00;99574.84;6278735;28;20056;-80
2023/04/12 11:46:51;;;;;;;4.20;1.20;;;;;;;9.06;100.00;99567.13;6278010;28;20045;-79
2023/04/12 11:49:54;;;;;;;2.90;1.20;;;;;;;9.12;100.00;99566.72;6278354;28;20049;-79
2023/04/12 11:53:09;;;;;;;2.92;1.35;;;;;;;9.25;100.00;99567.56;6278257;28;20049;-79
2023/04/12 11:56:12;;;;;;;4.53;1.65;;;;;;;9.29;100.00;99562.97;6268394;28;20045;-79
2023/04/12 11:59:13;;;;;;;2.30;1.23;;;;;;;9.25;100.00;99551.84;6278297;28;20063;-78
2023/04/12 12:02:16;;;;;;;1.77;1.35;;;;;;;9.38;100.00;99549.25;6278200;28;20053;-78
2023/04/12 12:05:18;;;;;;;2.00;1.08;;;;;;;9.25;100.00;99554.47;6276613;28;20079;-79
2023/04/12 12:08:19;;;;;;;1.17;0.90;;;;;;;9.38;100.00;99547.47;6277272;28;20044;-80
2023/04/12 12:11:25;;;;;;;2.08;1.20;;;;;;;9.43;100.00;99541.06;6277296;28;20342;-81
2023/04/12 12:14:27;;;;;;;3.30;1.13;;;;;;;9.42;100.00;99539.41;6274346;28;20144;-79
2023/04/12 12:17:28;;;;;;;5.20;1.10;;;;;;;9.39;100.00;99535.19;6277008;28;20152;-82
2023/04/12 12:20:30;;;;;;;1.50;1.23;;;;;;;9.35;100.00;99534.53;6277294;28;20092;-78
2023/04/12 12:23:32;;;;;;;5.47;1.25;;;;;;;9.44;100.00;99530.47;6277024;28;20441;-80
2023/04/12 12:26:36;;;;;;;2.03;1.60;;;;;;;9.45;100.00;99539.16;6274534;28;20056;-84
2023/04/12 12:29:38;;;;;;;1.02;0.88;;;;;;;9.42;100.00;99531.53;6274519;28;20345;-81
2023/04/12 12:32:39;;;;;;;4.40;1.23;;;;;;;9.38;100.00;99526.47;6276942;28;20048;-78
2023/04/12 12:35:41;;;;;;;2.60;1.42;;;;;;;9.36;100.00;99517.06;6277583;28;20051;-81
2023/04/12 12:38:42;;;;;;;1.92;1.08;;;;;;;9.41;100.00;99522.81;6276862;28;20051;-80
2023/04/12 12:41:53;;;;;;;2.03;1.25;;;;;;;9.43;100.00;99514.84;6277542;28;20441;-82
2023/04/12 12:44:54;;;;;;;1.10;1.00;;;;;;;9.47;100.00;99514.53;6276836;28;20438;-79
2023/04/12 12:47:58;;;;;;;2.83;1.20;;;;;;;9.50;100.00;99505.63;6277075;28;20627;-79
2023/04/12 12:50:59;;;;;;;5.43;1.30;;;;;;;9.47;100.00;99511.91;6276852;28;20048;-81
2023/04/12 12:54:01;;;;;;;2.42;1.35;;;;;;;9.46;100.00;99518.09;6277212;28;20045;-79
2023/04/12 12:57:04;;;;;;;1.65;1.00;;;;;;;9.46;100.00;99506.78;6273419;28;20071;-79
2023/04/12 13:00:08;;;;;;;1.23;1.08;;;;;;;9.47;100.00;99506.66;6269011;28;20056;-80
2023/04/12 13:03:10;;;;;;;1.65;1.10;;;;;;;9.48;100.00;99505.72;6276518;28;20441;-80
2023/04/12 13:06:11;;;;;;;1.02;0.93;;;;;;;9.53;100.00;99501.00;6276692;28;20430;-78
2023/04/12 13:09:13;;;;;;;0.90;0.90;;;;;;;9.58;100.00;99498.03;6276472;28;20045;-81
2023/04/12 13:12:16;;;;;;;1.13;0.90;;;;;;;9.58;100.00;99493.66;6276370;28;20048;-80
2023/04/12 13:15:17;;;;;;;2.17;1.20;;;;;;;9.61;100.00;99488.19;6276400;28;20057;-79
2023/04/12 13:18:19;;;;;;;2.40;1.00;;;;;;;9.65;100.00;99489.66;6274888;28;20323;-79
2023/04/12 13:21:20;;;;;;;1.75;1.02;;;;;;;9.68;100.00;99496.47;6280492;28;20076;-79
2023/04/12 13:24:21;;;;;;;1.10;0.90;;;;;;;9.69;100.00;99492.06;6276161;28;20088;-79
2023/04/12 13:27:24;;;;;;;3.33;1.27;;;;;;;9.74;100.00;99492.59;6275949;28;20055;-79
2023/04/12 13:30:25;;;;;;;3.53;1.70;;;;;;;9.75;100.00;99484.59;6275914;28;20049;-80
2023/04/12 13:33:27;;;;;;;5.53;1.50;;;;;;;9.76;100.00;99488.06;6276415;28;20067;-84
2023/04/12 13:36:28;;;;;;;4.55;0.80;;;;;;;9.75;100.00;99479.34;6275816;28;20041;-81
2023/04/12 13:39:31;;;;;;;2.35;1.17;;;;;;;9.83;100.00;99478.81;6275770;28;20051;-80
2023/04/12 13:42:33;;;;;;;1.77;1.20;;;;;;;9.80;100.00;99473.78;6275836;28;20072;-81
2023/04/12 13:45:35;;;;;;;1.85;1.30;;;;;;;9.83;100.00;99474.41;6275836;28;20044;-80
2023/04/12 13:48:36;;;;;;;1.00;0.70;;;;;;;9.77;100.00;99466.16;6275450;28;20052;-78
2023/04/12 13:51:38;;;;;;;1.52;1.23;;;;;;;9.84;100.00;99472.63;6275764;28;20045;-79
2023/04/12 13:54:39;;;;;;;2.15;0.93;;;;;;;9.84;100.00;99468.22;6275754;28;20045;-78
2023/04/12 13:57:42;;;;;;;2.97;1.73;;;;;;;9.83;100.00;99466.53;6271971;28;20098;-78
2023/04/12 14:00:43;;;;;;;2.15;1.42;;;;;;;9.82;100.00;99469.28;6275707;28;20052;-81
2023/04/12 14:03:45;;;;;;;1.30;1.10;;;;;;;9.85;100.00;99458.53;6274917;28;20052;-80
2023/04/12 14:06:46;;;;;;;2.13;1.40;;;;;;;9.85;100.00;99459.38;6273221;28;20052;-79
2023/04/12 14:09:48;;;;;;;2.10;1.20;;;;;;;9.87;100.00;99448.81;6274778;28;20055;-80
2023/04/12 14:12:51;;;;;;;1.67;1.17;;;;;;;9.84;100.00;99447.22;6271110;28;20128;-80
2023/04/12 14:15:53;;;;;;;2.90;1.60;;;;;;;9.84;100.00;99446.38;6269500;28;20080;-80
2023/04/12 14:18:54;;;;;;;1.98;1.40;;;;;;;9.91;100.00;99447.63;6273610;28;20060;-80
2023/04/12 14:21:56;;;;;;;1.08;1.00;;;;;;;9.91;100.00;99442.38;6275351;28;20052;-80